createdAt,value
2022-10-16T00:02:26.830Z,23.58
2022-10-16T00:04:55.673Z,21.58
2022-10-16T00:07:23.748Z,22.67
2022-10-16T00:09:52.145Z,22.88
2022-10-16T00:12:20.133Z,24.48
2022-10-16T00:14:47.906Z,26.00
2022-10-16T00:17:17.341Z,23.52
2022-10-16T00:19:45.137Z,23.73
2022-10-16T00:22:13.221Z,24.00
2022-10-16T00:24:40.925Z,23.70
2022-10-16T00:27:08.880Z,21.63
2022-10-16T00:29:36.597Z,30.25
2022-10-16T00:32:04.854Z,27.98
2022-10-16T00:34:34.200Z,26.98
2022-10-16T00:37:02.093Z,29.85
2022-10-16T00:39:29.788Z,21.77
2022-10-16T00:41:57.861Z,22.70
2022-10-16T00:44:47.477Z,22.45
2022-10-16T00:47:20.601Z,20.50
2022-10-16T00:49:53.726Z,20.60
2022-10-16T00:52:22.006Z,19.50
2022-10-16T00:54:51.714Z,19.77
2022-10-16T00:57:20.001Z,20.58
2022-10-16T00:59:48.018Z,18.33
2022-10-16T01:02:17.910Z,20.05
2022-10-16T01:04:48.029Z,20.40
2022-10-16T01:07:32.298Z,18.90
2022-10-16T01:10:09.697Z,18.23
2022-10-16T01:12:47.071Z,19.33
2022-10-16T01:15:25.651Z,18.50
2022-10-16T01:17:59.785Z,19.00
2022-10-16T01:20:31.466Z,19.00
2022-10-16T01:25:50.207Z,17.35
2022-10-16T01:28:22.887Z,16.30
2022-10-16T01:30:55.457Z,16.58
2022-10-16T01:33:26.410Z,16.30
2022-10-16T01:35:57.012Z,17.40
2022-10-16T01:38:31.851Z,16.25
2022-10-16T01:41:03.522Z,16.60
2022-10-16T01:43:38.401Z,15.38
2022-10-16T01:46:07.681Z,15.00
2022-10-16T01:48:37.353Z,14.60
2022-10-16T01:51:09.282Z,15.88
2022-10-16T01:53:38.081Z,14.25
2022-10-16T01:56:09.728Z,14.75
2022-10-16T01:58:44.418Z,14.77
2022-10-16T02:04:09.554Z,15.15
2022-10-16T02:06:37.797Z,16.08
2022-10-16T02:09:06.040Z,15.20
2022-10-16T02:11:33.853Z,14.95
2022-10-16T02:14:07.096Z,14.63
2022-10-16T02:16:36.154Z,14.25
2022-10-16T02:19:04.818Z,14.38
2022-10-16T02:21:40.965Z,14.45
2022-10-16T02:24:16.666Z,14.20
2022-10-16T02:26:50.407Z,14.43
2022-10-16T02:29:25.812Z,16.55
2022-10-16T02:31:57.350Z,18.27
2022-10-16T02:34:27.871Z,16.35
2022-10-16T02:36:57.721Z,17.23
2022-10-16T02:39:26.240Z,16.77
2022-10-16T02:41:54.126Z,15.10
2022-10-16T02:44:23.503Z,15.00
2022-10-16T02:46:51.250Z,15.05
2022-10-16T02:49:19.644Z,15.60
2022-10-16T02:51:47.469Z,15.43
2022-10-16T02:54:15.354Z,15.98
2022-10-16T02:56:43.156Z,16.45
2022-10-16T02:59:11.169Z,19.73
2022-10-16T03:01:40.288Z,17.98
2022-10-16T03:04:08.344Z,18.13
2022-10-16T03:06:36.783Z,18.52
2022-10-16T03:09:04.809Z,17.88
2022-10-16T03:11:32.601Z,18.30
2022-10-16T03:14:00.482Z,19.40
2022-10-16T03:16:28.303Z,19.75
2022-10-16T03:18:57.615Z,16.80
2022-10-16T03:21:25.766Z,16.50
2022-10-16T03:23:53.814Z,15.52
2022-10-16T03:26:21.716Z,15.27
2022-10-16T03:28:49.689Z,16.40
2022-10-16T03:31:17.539Z,15.68
2022-10-16T03:33:45.712Z,16.55
2022-10-16T03:36:14.754Z,17.50
2022-10-16T03:38:43.151Z,16.85
2022-10-16T03:41:11.019Z,17.92
2022-10-16T03:43:38.874Z,17.98
2022-10-16T03:46:07.060Z,17.55
2022-10-16T03:48:35.450Z,17.15
2022-10-16T03:51:03.170Z,16.33
2022-10-16T03:53:32.437Z,16.98
2022-10-16T03:56:00.389Z,18.38
2022-10-16T03:58:28.249Z,18.13
2022-10-16T04:00:56.168Z,17.58
2022-10-16T04:03:24.525Z,16.27
2022-10-16T04:05:52.528Z,16.70
2022-10-16T04:08:20.605Z,16.90
2022-10-16T04:10:49.844Z,17.05
2022-10-16T04:13:17.764Z,17.40
2022-10-16T04:15:47.245Z,18.30
2022-10-16T04:18:15.310Z,18.58
2022-10-16T04:20:43.060Z,17.27
2022-10-16T04:23:10.989Z,17.23
2022-10-16T04:25:38.879Z,19.15
2022-10-16T04:28:08.129Z,19.17
2022-10-16T04:30:35.918Z,18.17
2022-10-16T04:33:03.959Z,17.98
2022-10-16T04:35:31.698Z,17.48
2022-10-16T04:37:59.597Z,18.90
2022-10-16T04:40:27.532Z,18.48
2022-10-16T04:42:55.465Z,18.02
2022-10-16T04:45:24.557Z,17.25
2022-10-16T04:47:52.593Z,18.42
2022-10-16T04:50:20.290Z,18.15
2022-10-16T04:52:48.306Z,18.60
2022-10-16T04:55:16.482Z,18.73
2022-10-16T04:57:44.391Z,17.98
2022-10-16T05:00:12.966Z,17.90
2022-10-16T05:02:42.363Z,18.52
2022-10-16T05:05:10.687Z,18.10
2022-10-16T05:07:38.564Z,18.58
2022-10-16T05:10:07.225Z,18.52
2022-10-16T05:12:35.165Z,17.75
2022-10-16T05:15:02.870Z,18.33
2022-10-16T05:17:30.902Z,19.92
2022-10-16T05:20:00.057Z,19.38
2022-10-16T05:22:28.118Z,18.70
2022-10-16T05:24:56.082Z,20.15
2022-10-16T05:27:24.309Z,20.73
2022-10-16T05:29:52.528Z,19.67
2022-10-16T05:32:20.986Z,19.02
2022-10-16T05:34:48.759Z,20.38
2022-10-16T05:37:18.277Z,19.45
2022-10-16T05:39:46.333Z,19.45
2022-10-16T05:42:14.222Z,19.15
2022-10-16T05:44:41.936Z,18.10
2022-10-16T05:47:09.962Z,19.83
2022-10-16T05:49:40.419Z,16.92
2022-10-16T05:52:09.708Z,17.30
2022-10-16T05:54:38.888Z,17.33
2022-10-16T05:57:07.546Z,17.05
2022-10-16T05:59:35.368Z,17.15
2022-10-16T06:02:03.394Z,17.05
2022-10-16T06:04:31.191Z,17.50
2022-10-16T06:07:01.202Z,17.42
2022-10-16T06:09:29.066Z,18.17
2022-10-16T06:11:58.494Z,17.77
2022-10-16T06:14:26.600Z,19.13
2022-10-16T06:16:54.590Z,18.02
2022-10-16T06:19:22.341Z,18.20
2022-10-16T06:21:50.296Z,18.23
2022-10-16T06:24:18.143Z,17.77
2022-10-16T06:26:46.057Z,17.48
2022-10-16T06:29:15.101Z,16.52
2022-10-16T06:31:43.269Z,16.33
2022-10-16T06:34:12.434Z,17.05
2022-10-16T06:36:41.008Z,16.05
2022-10-16T06:39:09.078Z,16.67
2022-10-16T06:41:37.520Z,15.90
2022-10-16T06:44:07.478Z,16.42
2022-10-16T06:46:36.949Z,16.27
2022-10-16T06:49:04.735Z,15.85
2022-10-16T06:51:37.868Z,17.85
2022-10-16T06:54:08.470Z,16.20
2022-10-16T06:56:36.649Z,15.98
2022-10-16T06:59:05.500Z,15.55
2022-10-16T07:01:34.622Z,15.10
2022-10-16T07:04:04.039Z,14.43
2022-10-16T07:06:34.438Z,14.55
2022-10-16T07:09:05.138Z,13.90
2022-10-16T07:11:33.381Z,14.27
2022-10-16T07:14:01.281Z,12.27
2022-10-16T07:16:30.949Z,12.27
2022-10-16T07:19:00.579Z,12.75
2022-10-16T07:21:36.150Z,13.98
2022-10-16T07:24:05.233Z,12.00
2022-10-16T07:26:36.889Z,12.38
2022-10-16T07:29:05.279Z,11.77
2022-10-16T07:31:34.135Z,11.15
2022-10-16T07:34:02.555Z,10.40
2022-10-16T07:36:31.839Z,11.05
2022-10-16T07:39:00.426Z,10.95
2022-10-16T07:41:29.130Z,11.60
2022-10-16T07:43:58.270Z,12.13
2022-10-16T07:46:26.361Z,10.55
2022-10-16T07:48:54.560Z,10.25
2022-10-16T07:51:24.135Z,10.18
2022-10-16T07:53:54.491Z,9.40
2022-10-16T07:56:23.813Z,9.90
2022-10-16T07:58:52.288Z,14.18
2022-10-16T08:01:21.084Z,14.30
2022-10-16T08:03:50.639Z,13.63
2022-10-16T08:06:23.519Z,14.20
2022-10-16T08:08:56.609Z,14.52
2022-10-16T08:11:25.049Z,14.30
2022-10-16T08:13:52.776Z,13.90
2022-10-16T08:16:21.234Z,12.55
2022-10-16T08:18:49.308Z,13.65
2022-10-16T08:21:21.224Z,13.02
2022-10-16T08:23:54.505Z,14.20
2022-10-16T08:26:27.342Z,13.85
2022-10-16T08:28:56.011Z,15.00
2022-10-16T08:31:24.680Z,15.00
2022-10-16T08:33:53.285Z,14.75
2022-10-16T08:36:21.365Z,15.25
2022-10-16T08:38:50.724Z,15.15
2022-10-16T08:41:38.164Z,15.00
2022-10-16T08:44:39.518Z,14.50
2022-10-16T08:47:15.117Z,12.80
2022-10-16T08:49:55.882Z,13.75
2022-10-16T08:52:26.107Z,13.27
2022-10-16T08:54:57.231Z,12.23
2022-10-16T08:57:27.904Z,11.85
2022-10-16T09:00:01.809Z,11.77
2022-10-16T09:02:36.955Z,11.70
2022-10-16T09:05:22.629Z,12.80
2022-10-16T09:10:40.550Z,12.35
2022-10-16T09:13:19.571Z,15.00
2022-10-16T09:15:57.790Z,14.38
2022-10-16T09:18:32.928Z,12.98
2022-10-16T09:21:07.429Z,13.43
2022-10-16T09:23:38.483Z,12.88
2022-10-16T09:26:11.311Z,13.13
2022-10-16T09:28:39.420Z,10.95
2022-10-16T09:31:15.394Z,11.73
2022-10-16T09:33:44.317Z,11.13
2022-10-16T09:36:14.118Z,10.35
2022-10-16T09:38:42.116Z,9.88
2022-10-16T09:41:18.584Z,10.23
2022-10-16T09:43:51.666Z,10.13
2022-10-16T09:46:28.208Z,10.57
2022-10-16T09:48:58.593Z,8.07
2022-10-16T09:51:29.101Z,8.68
2022-10-16T09:53:59.338Z,8.05
2022-10-16T09:56:29.431Z,7.20
2022-10-16T09:58:59.116Z,8.13
2022-10-16T10:01:33.277Z,7.13
2022-10-16T10:04:03.779Z,6.82
2022-10-16T10:06:34.677Z,7.45
2022-10-16T10:09:07.761Z,8.40
2022-10-16T10:11:54.905Z,6.93
2022-10-16T10:14:26.320Z,5.55
2022-10-16T10:17:12.989Z,5.43
2022-10-16T10:19:42.961Z,6.10
2022-10-16T10:22:24.910Z,6.53
2022-10-16T10:25:14.371Z,5.80
2022-10-16T10:27:54.421Z,5.75
2022-10-16T10:30:27.068Z,5.88
2022-10-16T10:33:11.662Z,5.57
2022-10-16T10:35:46.059Z,5.90
2022-10-16T10:38:29.286Z,5.63
2022-10-16T10:41:14.087Z,5.55
2022-10-16T10:43:57.869Z,6.15
2022-10-16T10:46:33.717Z,5.80
2022-10-16T10:49:17.715Z,5.80
2022-10-16T10:51:54.410Z,6.05
2022-10-16T10:54:30.752Z,6.50
2022-10-16T10:57:03.728Z,5.93
2022-10-16T10:59:59.198Z,6.15
2022-10-16T11:02:36.897Z,6.43
2022-10-16T11:05:37.562Z,5.97
2022-10-16T11:08:11.865Z,5.60
2022-10-16T11:10:47.783Z,5.95
2022-10-16T11:13:25.573Z,5.97
2022-10-16T11:15:57.550Z,6.38
2022-10-16T11:18:32.087Z,5.32
2022-10-16T11:21:06.253Z,5.75
2022-10-16T11:23:41.034Z,5.43
2022-10-16T11:26:15.082Z,5.43
2022-10-16T11:28:48.720Z,6.03
2022-10-16T11:31:23.981Z,5.90
2022-10-16T11:33:59.369Z,5.85
2022-10-16T11:36:35.241Z,43.20
2022-10-16T11:39:12.239Z,14.73
2022-10-16T11:41:46.494Z,7.40
2022-10-16T11:44:35.245Z,6.40
2022-10-16T11:47:54.064Z,6.97
2022-10-16T11:50:04.724Z,6.05
2022-10-16T11:52:41.282Z,6.05
2022-10-16T11:55:17.904Z,6.25
2022-10-16T11:57:49.517Z,5.35
2022-10-16T12:00:24.749Z,6.32
2022-10-16T12:03:02.338Z,6.25
2022-10-16T12:05:38.060Z,5.82
2022-10-16T12:08:12.510Z,5.45
2022-10-16T12:10:42.829Z,5.43
2022-10-16T12:13:31.770Z,6.10
2022-10-16T12:16:07.872Z,5.80
2022-10-16T12:18:35.906Z,6.00
2022-10-16T12:21:07.516Z,6.97
2022-10-16T12:23:40.259Z,6.00
2022-10-16T12:26:08.408Z,6.03
2022-10-16T12:28:37.220Z,6.28
2022-10-16T12:31:07.809Z,6.32
2022-10-16T12:33:37.338Z,5.93
2022-10-16T12:36:11.313Z,5.60
2022-10-16T12:38:48.447Z,5.72
2022-10-16T12:41:27.226Z,6.18
2022-10-16T12:43:55.364Z,11.25
2022-10-16T12:46:39.140Z,5.93
2022-10-16T12:49:22.181Z,7.15
2022-10-16T12:51:50.115Z,9.32
2022-10-16T12:54:22.297Z,8.48
2022-10-16T12:57:10.528Z,4.70
2022-10-16T12:59:48.689Z,4.45
2022-10-16T13:03:04.212Z,3.80
2022-10-16T13:05:48.242Z,3.78
2022-10-16T13:08:37.457Z,3.65
2022-10-16T13:11:15.644Z,3.65
2022-10-16T13:14:02.305Z,3.75
2022-10-16T13:16:43.098Z,4.07
2022-10-16T13:19:23.119Z,3.92
2022-10-16T13:22:00.750Z,4.75
2022-10-16T13:24:44.024Z,4.10
2022-10-16T13:27:26.195Z,4.03
2022-10-16T13:30:02.373Z,4.07
2022-10-16T13:32:30.967Z,4.53
2022-10-16T13:34:59.274Z,4.35
2022-10-16T13:37:29.002Z,4.30
2022-10-16T13:40:09.644Z,4.82
2022-10-16T13:42:38.934Z,4.95
2022-10-16T13:45:08.056Z,7.22
2022-10-16T13:47:35.751Z,7.88
2022-10-16T13:50:05.585Z,5.75
2022-10-16T13:52:34.292Z,7.32
2022-10-16T13:55:02.680Z,6.05
2022-10-16T13:57:30.878Z,5.72
2022-10-16T14:00:00.221Z,4.78
2022-10-16T14:02:33.261Z,5.43
2022-10-16T14:05:01.376Z,5.85
2022-10-16T14:07:32.078Z,5.93
2022-10-16T14:10:03.729Z,5.35
2022-10-16T14:12:32.470Z,5.53
2022-10-16T14:15:02.884Z,5.82
2022-10-16T14:17:34.716Z,5.18
2022-10-16T14:20:07.075Z,5.90
2022-10-16T14:22:38.305Z,6.70
2022-10-16T14:25:31.132Z,6.93
2022-10-16T14:30:33.040Z,6.40
2022-10-16T14:33:02.406Z,6.25
2022-10-16T14:35:33.008Z,6.75
2022-10-16T14:38:02.900Z,7.95
2022-10-16T14:40:33.915Z,8.32
2022-10-16T14:43:03.268Z,8.32
2022-10-16T14:45:35.585Z,7.25
2022-10-16T14:48:18.791Z,7.28
2022-10-16T14:50:48.884Z,6.10
2022-10-16T14:53:16.891Z,6.95
2022-10-16T14:55:45.375Z,7.47
2022-10-16T14:58:17.180Z,6.47
2022-10-16T15:03:14.619Z,7.15
2022-10-16T15:05:42.644Z,6.32
2022-10-16T15:08:10.366Z,7.20
2022-10-16T15:10:41.568Z,7.57
2022-10-16T15:13:13.592Z,6.53
2022-10-16T15:15:46.769Z,6.35
2022-10-16T15:18:15.846Z,6.72
2022-10-16T15:20:44.252Z,6.85
2022-10-16T15:23:16.809Z,6.50
2022-10-16T15:25:47.285Z,6.85
2022-10-16T15:28:17.206Z,6.97
2022-10-16T15:30:47.873Z,6.78
2022-10-16T15:33:19.113Z,7.35
2022-10-16T15:35:49.690Z,6.40
2022-10-16T15:38:18.165Z,7.90
2022-10-16T15:40:49.708Z,6.47
2022-10-16T15:43:17.670Z,6.68
2022-10-16T15:46:00.020Z,8.23
2022-10-16T15:48:27.873Z,6.97
2022-10-16T15:50:55.869Z,8.00
2022-10-16T15:53:23.757Z,7.00
2022-10-16T15:55:51.993Z,6.95
2022-10-16T15:58:19.804Z,8.45
2022-10-16T16:00:56.445Z,9.43
2022-10-16T16:03:24.454Z,9.35
2022-10-16T16:05:52.379Z,8.38
2022-10-16T16:08:20.950Z,10.55
2022-10-16T16:10:59.674Z,10.68
2022-10-16T16:13:27.554Z,10.50
2022-10-16T16:15:57.258Z,10.98
2022-10-16T16:18:25.984Z,10.95
2022-10-16T16:20:54.283Z,10.77
2022-10-16T16:23:23.096Z,11.32
2022-10-16T16:26:06.200Z,10.73
2022-10-16T16:28:34.371Z,10.75
2022-10-16T16:31:04.059Z,9.80
2022-10-16T16:33:33.019Z,10.10
2022-10-16T16:36:02.616Z,9.95
2022-10-16T16:38:30.756Z,11.20
2022-10-16T16:40:58.833Z,10.93
2022-10-16T16:43:27.091Z,10.60
2022-10-16T16:45:55.831Z,10.90
2022-10-16T16:48:24.926Z,10.10
2022-10-16T16:50:52.929Z,10.13
2022-10-16T16:53:20.675Z,9.75
2022-10-16T16:55:48.610Z,9.63
2022-10-16T16:58:16.504Z,10.52
2022-10-16T17:00:56.530Z,10.82
2022-10-16T17:03:26.173Z,10.85
2022-10-16T17:05:57.922Z,12.18
2022-10-16T17:08:25.604Z,12.38
2022-10-16T17:10:55.929Z,12.13
2022-10-16T17:13:25.102Z,11.68
2022-10-16T17:15:54.033Z,11.82
2022-10-16T17:18:23.257Z,12.38
2022-10-16T17:20:52.726Z,12.52
2022-10-16T17:23:21.349Z,13.55
2022-10-16T17:25:49.346Z,13.20
2022-10-16T17:28:17.291Z,17.70
2022-10-16T17:30:45.446Z,18.55
2022-10-16T17:33:14.649Z,15.25
2022-10-16T17:35:44.455Z,14.27
2022-10-16T17:38:16.683Z,13.52
2022-10-16T17:40:44.783Z,13.07
2022-10-16T17:43:12.469Z,13.50
2022-10-16T17:45:40.545Z,12.93
2022-10-16T17:48:08.483Z,13.75
2022-10-16T17:50:40.983Z,14.55
2022-10-16T17:53:08.865Z,15.55
2022-10-16T17:55:40.370Z,15.65
2022-10-16T17:58:08.468Z,14.43
2022-10-16T18:00:36.566Z,14.20
2022-10-16T18:03:04.922Z,14.05
2022-10-16T18:05:32.834Z,13.45
2022-10-16T18:08:00.676Z,13.10
2022-10-16T18:10:28.776Z,12.45
2022-10-16T18:12:57.826Z,12.98
2022-10-16T18:15:25.894Z,12.68
2022-10-16T18:17:54.867Z,12.88
2022-10-16T18:20:23.110Z,13.13
2022-10-16T18:22:50.953Z,12.85
2022-10-16T18:25:18.950Z,13.20
2022-10-16T18:27:46.708Z,13.88
2022-10-16T18:30:16.307Z,13.65
2022-10-16T18:32:44.262Z,13.98
2022-10-16T18:37:40.945Z,15.48
2022-10-16T18:40:09.386Z,16.45
2022-10-16T18:42:37.120Z,17.80
2022-10-16T18:45:05.573Z,16.98
2022-10-16T18:47:34.868Z,16.80
2022-10-16T18:50:02.775Z,16.67
2022-10-16T18:52:32.236Z,16.40
2022-10-16T18:55:00.522Z,16.02
2022-10-16T18:57:30.063Z,15.55
2022-10-16T18:59:58.614Z,14.38
2022-10-16T19:02:26.617Z,13.68
2022-10-16T19:04:55.910Z,14.88
2022-10-16T19:07:23.667Z,13.70
2022-10-16T19:09:51.746Z,13.75
2022-10-16T19:12:19.517Z,14.07
2022-10-16T19:14:48.964Z,13.85
2022-10-16T19:17:16.826Z,13.23
2022-10-16T19:19:44.746Z,13.98
2022-10-16T19:22:27.883Z,13.70
2022-10-16T19:24:56.423Z,12.43
2022-10-16T19:27:24.406Z,12.52
2022-10-16T19:29:52.306Z,12.95
2022-10-16T19:32:20.132Z,13.77
2022-10-16T19:34:51.097Z,14.35
2022-10-16T19:37:25.669Z,14.40
2022-10-16T19:39:54.235Z,14.80
2022-10-16T19:42:22.093Z,13.88
2022-10-16T19:44:50.794Z,14.60
2022-10-16T19:47:20.884Z,14.85
2022-10-16T19:49:52.524Z,14.60
2022-10-16T19:52:23.051Z,13.63
2022-10-16T19:54:50.994Z,14.77
2022-10-16T19:57:18.914Z,15.27
2022-10-16T19:59:47.273Z,16.83
2022-10-16T20:02:15.036Z,16.90
2022-10-16T20:04:43.115Z,16.80
2022-10-16T20:07:11.126Z,15.75
2022-10-16T20:09:40.442Z,16.17
2022-10-16T20:12:08.158Z,15.00
2022-10-16T20:14:36.414Z,13.68
2022-10-16T20:17:04.290Z,13.27
2022-10-16T20:19:32.497Z,13.20
2022-10-16T20:22:00.447Z,13.05
2022-10-16T20:24:28.572Z,13.38
2022-10-16T20:26:58.812Z,12.55
2022-10-16T20:29:26.916Z,12.70
2022-10-16T20:31:54.677Z,12.93
2022-10-16T20:34:22.618Z,12.98
2022-10-16T20:36:50.777Z,12.85
2022-10-16T20:39:18.657Z,13.82
2022-10-16T20:41:46.377Z,13.73
2022-10-16T20:44:15.787Z,13.27
2022-10-16T20:46:43.487Z,13.00
2022-10-16T20:49:27.882Z,13.75
2022-10-16T20:51:56.866Z,13.50
2022-10-16T20:54:24.818Z,13.60
2022-10-16T20:56:52.986Z,14.05
2022-10-16T20:59:22.599Z,14.00
2022-10-16T21:01:50.386Z,12.52
2022-10-16T21:04:18.321Z,13.38
2022-10-16T21:06:46.167Z,13.00
2022-10-16T21:09:14.089Z,12.18
2022-10-16T21:11:41.782Z,12.65
2022-10-16T21:14:10.173Z,12.45
2022-10-16T21:16:39.260Z,12.23
2022-10-16T21:19:07.349Z,12.07
2022-10-16T21:21:38.125Z,12.82
2022-10-16T21:24:07.829Z,13.02
2022-10-16T21:26:37.614Z,12.02
2022-10-16T21:29:07.732Z,11.73
2022-10-16T21:31:36.118Z,12.50
2022-10-16T21:34:05.951Z,11.63
2022-10-16T21:36:36.613Z,12.70
2022-10-16T21:39:06.633Z,12.23
2022-10-16T21:41:35.641Z,11.40
2022-10-16T21:44:04.730Z,11.95
2022-10-16T21:46:34.450Z,12.05
2022-10-16T21:49:05.957Z,13.13
2022-10-16T21:51:36.838Z,11.25
2022-10-16T21:54:07.018Z,13.60
2022-10-16T21:56:35.467Z,12.77
2022-10-16T21:59:03.589Z,12.35
2022-10-16T22:01:31.829Z,11.15
2022-10-16T22:04:00.659Z,13.32
2022-10-16T22:06:30.099Z,12.60
2022-10-16T22:09:00.363Z,12.20
2022-10-16T22:11:31.241Z,12.77
2022-10-16T22:13:59.402Z,12.63
2022-10-16T22:16:27.696Z,12.48
2022-10-16T22:18:57.305Z,12.35
2022-10-16T22:21:25.819Z,12.77
2022-10-16T22:23:55.119Z,12.90
2022-10-16T22:26:22.919Z,12.63
2022-10-16T22:28:51.431Z,11.77
2022-10-16T22:31:19.290Z,12.10
2022-10-16T22:33:47.322Z,12.52
2022-10-16T22:36:16.061Z,13.35
2022-10-16T22:38:43.922Z,11.93
2022-10-16T22:41:14.641Z,12.98
2022-10-16T22:43:44.393Z,13.10
2022-10-16T22:46:15.211Z,12.45
2022-10-16T22:48:43.826Z,12.57
2022-10-16T22:51:16.651Z,13.48
2022-10-16T22:53:46.504Z,12.93
2022-10-16T22:56:17.104Z,13.10
2022-10-16T22:58:45.332Z,13.55
2022-10-16T23:01:15.715Z,12.48
2022-10-16T23:03:43.666Z,12.73
2022-10-16T23:06:11.433Z,11.60
2022-10-16T23:08:39.505Z,12.80
2022-10-16T23:11:09.196Z,13.52
2022-10-16T23:13:39.559Z,13.13
2022-10-16T23:16:08.507Z,12.80
2022-10-16T23:18:36.422Z,12.60
2022-10-16T23:21:06.335Z,13.52
2022-10-16T23:23:35.970Z,12.52
2022-10-16T23:26:03.877Z,13.18
2022-10-16T23:28:32.231Z,13.48
2022-10-16T23:31:01.810Z,14.25
2022-10-16T23:33:29.721Z,13.63
2022-10-16T23:35:57.404Z,13.45
2022-10-16T23:38:25.588Z,14.55
2022-10-16T23:40:53.341Z,13.18
2022-10-16T23:43:21.238Z,13.70
2022-10-16T23:45:49.139Z,14.70
2022-10-16T23:48:18.349Z,14.35
2022-10-16T23:50:46.112Z,13.80
2022-10-16T23:53:14.325Z,12.93
2022-10-16T23:55:41.999Z,12.88
2022-10-16T23:58:09.980Z,13.30
